createdAt,value
2018-12-14T00:00:24.535Z,0.50
2018-12-14T00:02:56.736Z,0.50
2018-12-14T00:05:32.275Z,0.50
2018-12-14T00:08:04.687Z,0.50
2018-12-14T00:10:36.975Z,0.40
2018-12-14T00:15:37.734Z,0.40
2018-12-14T00:18:09.998Z,0.40
2018-12-14T00:20:42.151Z,0.40
2018-12-14T00:23:14.249Z,0.40
2018-12-14T00:25:50.699Z,0.40
2018-12-14T00:28:22.915Z,0.40
2018-12-14T00:30:59.275Z,0.50
2018-12-14T00:33:31.493Z,0.50
2018-12-14T00:36:08.000Z,0.40
2018-12-14T00:38:40.098Z,0.40
2018-12-14T00:41:12.094Z,0.40
2018-12-14T00:43:44.300Z,0.40
2018-12-14T00:46:16.446Z,0.40
2018-12-14T00:48:48.734Z,0.40
2018-12-14T00:51:20.898Z,0.50
2018-12-14T00:53:52.972Z,0.40
2018-12-14T00:56:29.357Z,0.40
2018-12-14T00:59:05.813Z,0.40
2018-12-14T01:01:37.805Z,0.40
2018-12-14T01:04:10.036Z,0.40
2018-12-14T01:06:42.206Z,0.50
2018-12-14T01:09:14.425Z,0.50
2018-12-14T01:11:46.610Z,0.50
2018-12-14T01:14:18.921Z,0.40
2018-12-14T01:16:55.002Z,0.40
2018-12-14T01:19:27.326Z,0.50
2018-12-14T01:21:59.442Z,0.50
2018-12-14T01:24:31.519Z,0.50
2018-12-14T01:27:03.756Z,0.50
2018-12-14T01:29:36.174Z,0.50
2018-12-14T01:32:08.177Z,0.50
2018-12-14T01:34:40.242Z,0.50
2018-12-14T01:37:12.486Z,0.50
2018-12-14T01:39:44.637Z,0.50
2018-12-14T01:42:16.845Z,0.50
2018-12-14T01:44:52.461Z,0.50
2018-12-14T01:47:24.668Z,0.50
2018-12-14T01:49:56.735Z,0.50
2018-12-14T01:52:29.048Z,0.50
2018-12-14T01:55:01.050Z,0.50
2018-12-14T01:57:33.258Z,0.40
2018-12-14T02:00:05.777Z,0.40
2018-12-14T02:02:37.553Z,0.40
2018-12-14T02:05:14.042Z,0.40
2018-12-14T02:07:46.251Z,0.40
2018-12-14T02:10:18.546Z,0.30
2018-12-14T02:12:50.821Z,0.30
2018-12-14T02:15:23.001Z,0.40
2018-12-14T02:17:55.081Z,0.40
2018-12-14T02:20:27.223Z,0.40
2018-12-14T02:22:59.354Z,0.40
2018-12-14T02:25:34.955Z,0.40
2018-12-14T02:28:07.158Z,0.40
2018-12-14T02:30:43.194Z,0.40
2018-12-14T02:33:14.974Z,0.40
2018-12-14T02:35:47.294Z,0.40
2018-12-14T02:38:22.792Z,0.40
2018-12-14T02:40:55.041Z,0.40
2018-12-14T02:43:27.182Z,0.40
2018-12-14T02:45:59.079Z,0.40
2018-12-14T02:48:31.242Z,0.40
2018-12-14T02:51:03.445Z,0.40
2018-12-14T02:53:35.569Z,0.40
2018-12-14T02:56:07.587Z,0.40
2018-12-14T02:58:39.877Z,0.40
2018-12-14T03:01:12.302Z,0.40
2018-12-14T03:03:49.337Z,0.40
2018-12-14T03:06:21.539Z,0.50
2018-12-14T03:08:53.632Z,0.50
2018-12-14T03:11:25.923Z,0.50
2018-12-14T03:13:58.195Z,0.50
2018-12-14T03:16:30.271Z,0.50
2018-12-14T03:19:02.377Z,0.50
2018-12-14T03:21:37.977Z,0.50
2018-12-14T03:24:10.160Z,0.50
2018-12-14T03:26:42.411Z,0.50
2018-12-14T03:29:14.510Z,0.40
2018-12-14T03:31:46.826Z,0.40
2018-12-14T03:34:19.181Z,0.40
2018-12-14T03:36:51.251Z,0.40
2018-12-14T03:39:23.515Z,0.40
2018-12-14T03:41:55.434Z,0.40
2018-12-14T03:44:27.791Z,0.50
2018-12-14T03:46:59.961Z,0.40
2018-12-14T03:49:32.041Z,0.40
2018-12-14T03:52:04.272Z,0.40
2018-12-14T03:54:36.242Z,0.40
2018-12-14T03:57:11.767Z,0.40
2018-12-14T03:59:47.261Z,0.40
2018-12-14T04:02:19.449Z,0.40
2018-12-14T04:04:51.671Z,0.40
2018-12-14T04:07:23.800Z,0.40
2018-12-14T04:10:00.852Z,0.40
2018-12-14T04:12:32.839Z,0.40
2018-12-14T04:15:05.388Z,0.40
2018-12-14T04:17:37.273Z,0.40
2018-12-14T04:20:09.705Z,0.40
2018-12-14T04:22:41.905Z,0.50
2018-12-14T04:25:13.999Z,0.50
2018-12-14T04:27:46.149Z,0.50
2018-12-14T04:30:18.378Z,0.50
2018-12-14T04:32:50.668Z,0.50
2018-12-14T04:35:26.152Z,0.50
2018-12-14T04:37:58.439Z,0.50
2018-12-14T04:40:30.800Z,0.50
2018-12-14T04:43:02.852Z,0.50
2018-12-14T04:45:35.034Z,0.50
2018-12-14T04:48:07.322Z,0.50
2018-12-14T04:50:39.506Z,0.40
2018-12-14T04:53:11.688Z,0.40
2018-12-14T04:55:44.182Z,0.40
2018-12-14T04:58:16.264Z,0.50
2018-12-14T05:00:48.656Z,0.50
2018-12-14T05:03:24.116Z,0.50
2018-12-14T05:06:00.339Z,0.50
2018-12-14T05:08:32.625Z,0.40
2018-12-14T05:11:04.741Z,0.40
2018-12-14T05:13:36.887Z,0.50
2018-12-14T05:16:08.973Z,0.50
2018-12-14T05:18:41.194Z,0.50
2018-12-14T05:21:13.274Z,0.50
2018-12-14T05:23:45.642Z,0.50
2018-12-14T05:26:17.757Z,0.40
2018-12-14T05:28:50.007Z,0.40
2018-12-14T05:31:22.307Z,0.50
2018-12-14T05:33:54.699Z,0.40
2018-12-14T05:36:27.097Z,0.40
2018-12-14T05:38:59.165Z,0.40
2018-12-14T05:41:31.432Z,0.40
2018-12-14T05:44:03.821Z,0.40
2018-12-14T05:46:35.805Z,0.40
2018-12-14T05:49:12.126Z,0.40
2018-12-14T05:51:44.399Z,0.40
2018-12-14T05:54:16.897Z,0.40
2018-12-14T05:56:49.009Z,0.40
2018-12-14T05:59:25.581Z,0.40
2018-12-14T06:01:57.796Z,0.40
2018-12-14T06:04:30.060Z,0.30
2018-12-14T06:07:02.390Z,0.30
2018-12-14T06:09:38.462Z,0.30
2018-12-14T06:12:10.891Z,0.30
2018-12-14T06:14:42.781Z,0.30
2018-12-14T06:17:15.261Z,0.30
2018-12-14T06:19:51.536Z,0.30
2018-12-14T06:22:27.746Z,0.30
2018-12-14T06:24:59.923Z,0.30
2018-12-14T06:27:31.995Z,0.30
2018-12-14T06:30:08.460Z,0.40
2018-12-14T06:32:40.470Z,0.30
2018-12-14T06:35:12.660Z,0.30
2018-12-14T06:37:44.694Z,0.30
2018-12-14T06:40:21.712Z,0.40
2018-12-14T06:42:54.143Z,0.30
2018-12-14T06:45:26.032Z,0.40
2018-12-14T06:47:58.223Z,0.40
2018-12-14T06:50:31.422Z,0.40
2018-12-14T06:53:03.760Z,0.40
2018-12-14T06:55:35.776Z,0.40
2018-12-14T06:58:07.705Z,0.40
2018-12-14T07:00:39.750Z,0.40
2018-12-14T07:03:16.105Z,0.40
2018-12-14T07:05:48.404Z,0.40
2018-12-14T07:08:20.673Z,0.40
2018-12-14T07:10:52.760Z,0.40
2018-12-14T07:13:25.144Z,0.40
2018-12-14T07:15:57.242Z,0.40
2018-12-14T07:18:29.433Z,0.40
2018-12-14T07:21:01.751Z,0.40
2018-12-14T07:23:38.356Z,0.40
2018-12-14T07:26:10.460Z,0.40
2018-12-14T07:28:42.805Z,0.40
2018-12-14T07:31:15.229Z,0.40
2018-12-14T07:33:47.383Z,0.40
2018-12-14T07:36:19.663Z,0.40
2018-12-14T07:38:51.901Z,0.50
2018-12-14T07:41:23.916Z,0.50
2018-12-14T07:43:56.472Z,0.50
2018-12-14T07:46:28.471Z,0.50
2018-12-14T07:49:00.566Z,0.50
2018-12-14T07:51:32.989Z,0.50
2018-12-14T07:54:05.170Z,0.50
2018-12-14T07:56:37.607Z,0.60
2018-12-14T07:59:10.156Z,0.60
2018-12-14T08:01:42.056Z,0.60
2018-12-14T08:04:14.582Z,0.70
2018-12-14T08:06:46.861Z,0.70
2018-12-14T08:09:22.638Z,0.80
2018-12-14T08:11:54.529Z,0.80
2018-12-14T08:14:26.558Z,0.80
2018-12-14T08:16:58.610Z,0.90
2018-12-14T08:19:30.739Z,0.90
2018-12-14T08:22:02.939Z,0.90
2018-12-14T08:24:36.219Z,0.90
2018-12-14T08:27:08.404Z,0.90
2018-12-14T08:29:40.791Z,0.90
2018-12-14T08:32:12.973Z,1.00
2018-12-14T08:34:50.767Z,1.00
2018-12-14T08:37:19.498Z,1.00
2018-12-14T08:39:51.853Z,1.00
2018-12-14T08:42:23.874Z,1.00
2018-12-14T08:44:56.010Z,1.10
2018-12-14T08:47:33.201Z,1.10
2018-12-14T08:50:05.591Z,1.20
2018-12-14T08:52:37.476Z,1.20
2018-12-14T08:55:12.959Z,1.30
2018-12-14T08:57:45.232Z,1.30
2018-12-14T09:00:17.585Z,1.40
2018-12-14T09:02:49.642Z,1.40
2018-12-14T09:05:21.743Z,1.50
2018-12-14T09:07:53.951Z,1.50
2018-12-14T09:10:29.462Z,1.50
2018-12-14T09:13:01.683Z,1.60
2018-12-14T09:15:32.060Z,1.60
2018-12-14T09:18:07.579Z,1.70
2018-12-14T09:20:39.852Z,1.70
2018-12-14T09:23:12.201Z,1.80
2018-12-14T09:25:48.593Z,1.90
2018-12-14T09:28:20.741Z,1.90
2018-12-14T09:30:52.743Z,2.00
2018-12-14T09:33:24.917Z,2.00
2018-12-14T09:36:01.139Z,2.10
2018-12-14T09:38:33.533Z,2.10
2018-12-14T09:41:05.854Z,2.20
2018-12-14T09:43:38.239Z,2.30
2018-12-14T09:46:10.306Z,2.30
2018-12-14T09:48:46.791Z,2.30
2018-12-14T09:51:18.852Z,2.40
2018-12-14T09:53:50.673Z,2.40
2018-12-14T09:56:23.053Z,2.40
2018-12-14T09:58:59.195Z,2.50
2018-12-14T10:01:31.466Z,2.60
2018-12-14T10:04:03.613Z,2.60
2018-12-14T10:06:40.846Z,2.70
2018-12-14T10:09:16.555Z,2.80
2018-12-14T10:11:54.900Z,2.80
2018-12-14T10:14:23.151Z,2.70
2018-12-14T10:16:55.287Z,2.70
2018-12-14T10:19:27.274Z,2.80
2018-12-14T10:21:59.453Z,2.90
2018-12-14T10:24:31.674Z,2.80
2018-12-14T10:27:07.267Z,2.80
2018-12-14T10:29:39.529Z,2.70
2018-12-14T10:32:11.750Z,2.70
2018-12-14T10:34:44.146Z,2.70
2018-12-14T10:37:21.156Z,2.70
2018-12-14T10:39:53.374Z,2.60
2018-12-14T10:42:25.464Z,2.60
2018-12-14T10:44:57.830Z,2.50
2018-12-14T10:47:30.120Z,2.50
2018-12-14T10:50:02.594Z,2.50
2018-12-14T10:52:34.801Z,2.50
2018-12-14T10:55:07.246Z,2.50
2018-12-14T10:57:39.381Z,2.50
2018-12-14T11:00:18.926Z,2.50
2018-12-14T11:02:51.012Z,2.50
2018-12-14T11:05:23.148Z,2.50
2018-12-14T11:07:55.530Z,2.50
2018-12-14T11:10:27.604Z,2.50
2018-12-14T11:12:59.885Z,2.50
2018-12-14T11:15:36.401Z,2.60
2018-12-14T11:18:08.666Z,2.50
2018-12-14T11:20:40.756Z,2.50
2018-12-14T11:23:12.958Z,2.50
2018-12-14T11:25:45.086Z,2.60
2018-12-14T11:28:20.545Z,2.60
2018-12-14T11:30:56.188Z,2.60
2018-12-14T11:33:28.158Z,2.60
2018-12-14T11:36:00.561Z,2.60
2018-12-14T11:38:32.966Z,2.40
2018-12-14T11:41:05.049Z,2.30
2018-12-14T11:43:37.466Z,2.30
2018-12-14T11:46:09.671Z,2.30
2018-12-14T11:48:41.895Z,2.30
2018-12-14T11:51:17.057Z,2.30
2018-12-14T11:53:49.087Z,2.30
2018-12-14T11:56:21.369Z,2.20
2018-12-14T11:58:53.560Z,2.30
2018-12-14T12:01:25.547Z,2.30
2018-12-14T12:04:01.103Z,2.30
2018-12-14T12:06:33.368Z,2.40
2018-12-14T12:09:08.689Z,2.50
2018-12-14T12:11:40.497Z,2.60
2018-12-14T12:14:12.800Z,2.60
2018-12-14T12:16:45.498Z,2.70
2018-12-14T12:19:17.305Z,2.70
2018-12-14T12:21:49.455Z,2.60
2018-12-14T12:24:21.735Z,2.60
2018-12-14T12:26:53.711Z,2.60
2018-12-14T12:29:26.036Z,2.60
2018-12-14T12:31:58.022Z,2.50
2018-12-14T12:34:33.547Z,2.60
2018-12-14T12:37:05.757Z,2.60
2018-12-14T12:39:37.972Z,2.60
2018-12-14T12:42:10.121Z,2.60
2018-12-14T12:44:42.536Z,2.60
2018-12-14T12:47:14.342Z,2.60
2018-12-14T12:49:46.522Z,2.60
2018-12-14T12:52:18.946Z,2.70
2018-12-14T12:54:51.119Z,2.70
2018-12-14T12:57:23.393Z,2.70
2018-12-14T12:59:55.560Z,2.60
2018-12-14T13:02:27.950Z,2.50
2018-12-14T13:05:00.043Z,2.50
2018-12-14T13:07:32.228Z,2.50
2018-12-14T13:10:07.875Z,2.50
2018-12-14T13:12:40.000Z,2.50
2018-12-14T13:15:12.392Z,2.50
2018-12-14T13:17:44.491Z,2.40
2018-12-14T13:20:16.751Z,2.40
2018-12-14T13:22:52.847Z,2.30
2018-12-14T13:25:29.287Z,2.30
2018-12-14T13:28:05.611Z,2.30
2018-12-14T13:30:43.056Z,2.20
2018-12-14T13:35:44.093Z,2.10
2018-12-14T13:38:16.397Z,2.10
2018-12-14T13:40:48.743Z,2.10
2018-12-14T13:43:20.981Z,2.00
2018-12-14T13:45:53.265Z,2.00
2018-12-14T13:48:25.558Z,2.00
2018-12-14T13:50:57.643Z,2.00
2018-12-14T13:53:30.001Z,1.90
2018-12-14T13:56:02.281Z,1.90
2018-12-14T13:58:34.601Z,1.90
2018-12-14T14:01:06.995Z,1.90
2018-12-14T14:03:39.087Z,1.90
2018-12-14T14:06:14.569Z,1.90
2018-12-14T14:08:46.233Z,1.90
2018-12-14T14:11:18.424Z,1.90
2018-12-14T14:13:50.865Z,1.90
2018-12-14T14:16:22.991Z,1.90
2018-12-14T14:18:55.305Z,1.90
2018-12-14T14:21:27.513Z,1.80
2018-12-14T14:23:59.720Z,1.80
2018-12-14T14:26:32.034Z,1.70
2018-12-14T14:29:09.142Z,1.70
2018-12-14T14:31:41.210Z,1.70
2018-12-14T14:34:13.400Z,1.60
2018-12-14T14:54:20.839Z,1.60
2018-12-14T14:56:52.827Z,1.60
2018-12-14T14:59:24.833Z,1.60
2018-12-14T15:01:57.247Z,1.60
2018-12-14T15:04:29.559Z,1.60
2018-12-14T15:07:01.629Z,1.60
2018-12-14T15:09:38.117Z,1.60
2018-12-14T15:12:10.301Z,1.50
2018-12-14T15:14:42.539Z,1.50
2018-12-14T15:17:14.953Z,1.50
2018-12-14T15:19:47.177Z,1.50
2018-12-14T15:22:19.322Z,1.50
2018-12-14T15:24:51.498Z,1.40
2018-12-14T15:27:23.266Z,1.40
2018-12-14T15:29:55.394Z,1.40
2018-12-14T15:32:28.115Z,1.40
2018-12-14T15:35:00.109Z,1.40
2018-12-14T15:37:32.703Z,1.40
2018-12-14T15:40:05.512Z,1.40
2018-12-14T15:42:41.101Z,1.40
2018-12-14T15:45:13.453Z,1.40
2018-12-14T15:47:45.417Z,1.40
2018-12-14T15:50:17.768Z,1.40
2018-12-14T15:52:49.878Z,1.40
2018-12-14T15:55:26.100Z,1.30
2018-12-14T15:58:01.615Z,1.30
2018-12-14T16:00:33.704Z,1.30
2018-12-14T16:03:05.912Z,1.20
2018-12-14T16:05:38.200Z,1.20
2018-12-14T16:08:10.348Z,1.20
2018-12-14T16:10:42.552Z,1.20
2018-12-14T16:13:14.635Z,1.20
2018-12-14T16:15:46.655Z,1.20
2018-12-14T16:18:18.581Z,1.20
2018-12-14T16:20:51.434Z,1.20
2018-12-14T16:23:22.008Z,1.30
2018-12-14T16:25:54.174Z,1.20
2018-12-14T16:28:26.418Z,1.20
2018-12-14T16:31:01.925Z,1.20
2018-12-14T16:33:34.315Z,1.20
2018-12-14T16:36:06.506Z,1.20
2018-12-14T16:38:38.964Z,1.10
2018-12-14T16:41:11.153Z,1.20
2018-12-14T16:43:43.486Z,1.20
2018-12-14T16:46:15.807Z,1.20
2018-12-14T16:48:48.086Z,1.20
2018-12-14T16:51:20.123Z,1.20
2018-12-14T16:53:57.878Z,1.20
2018-12-14T16:56:29.781Z,1.20
2018-12-14T16:59:01.826Z,1.10
2018-12-14T17:01:34.132Z,1.10
2018-12-14T17:04:06.329Z,1.10
2018-12-14T17:06:38.646Z,1.10
2018-12-14T17:09:10.800Z,1.10
2018-12-14T17:11:43.274Z,1.10
2018-12-14T17:14:20.070Z,1.10
2018-12-14T17:16:51.849Z,1.10
2018-12-14T17:19:23.971Z,1.10
2018-12-14T17:21:59.518Z,1.10
2018-12-14T17:24:36.579Z,1.10
2018-12-14T17:27:08.833Z,1.10
2018-12-14T17:29:40.831Z,1.10
2018-12-14T17:32:13.046Z,1.10
2018-12-14T17:34:50.103Z,1.10
2018-12-14T17:37:22.571Z,1.10
2018-12-14T17:39:54.641Z,1.10
2018-12-14T17:42:30.155Z,1.10
2018-12-14T17:45:06.363Z,1.10
2018-12-14T17:47:38.757Z,1.10
2018-12-14T17:50:11.388Z,1.10
2018-12-14T17:52:43.468Z,1.10
2018-12-14T17:55:15.436Z,1.10
2018-12-14T18:05:29.776Z,1.10
2018-12-14T18:08:01.869Z,1.10
2018-12-14T18:10:37.484Z,1.10
2018-12-14T18:13:12.964Z,1.10
2018-12-14T18:15:46.500Z,1.10
2018-12-14T18:18:18.735Z,1.10
2018-12-14T18:20:50.833Z,1.00
2018-12-14T18:23:27.058Z,1.00
2018-12-14T18:26:03.287Z,1.00
2018-12-14T18:28:35.163Z,1.00
2018-12-14T18:31:06.753Z,1.00
2018-12-14T18:33:42.242Z,1.00
2018-12-14T18:36:14.638Z,1.00
2018-12-14T18:38:46.912Z,1.00
2018-12-14T18:41:19.153Z,1.00
2018-12-14T18:43:51.307Z,1.00
2018-12-14T18:46:23.499Z,0.90
2018-12-14T18:48:55.759Z,0.90
2018-12-14T18:51:28.143Z,0.90
2018-12-14T18:54:00.509Z,0.90
2018-12-14T18:56:32.921Z,0.90
2018-12-14T18:59:05.411Z,0.90
2018-12-14T19:01:37.215Z,0.90
2018-12-14T19:04:13.426Z,0.90
2018-12-14T19:06:45.601Z,0.90
2018-12-14T19:09:17.723Z,0.90
2018-12-14T19:11:49.878Z,0.90
2018-12-14T19:14:22.318Z,0.80
2018-12-14T19:16:54.865Z,0.80
2018-12-14T19:19:27.061Z,0.70
2018-12-14T19:22:04.193Z,0.60
2018-12-14T19:24:36.286Z,0.60
2018-12-14T19:27:08.386Z,0.60
2018-12-14T19:29:40.791Z,0.60
2018-12-14T19:32:13.084Z,0.50
2018-12-14T19:34:45.020Z,0.50
2018-12-14T19:37:17.196Z,0.50
2018-12-14T19:39:49.264Z,0.50
2018-12-14T19:42:21.653Z,0.50
2018-12-14T19:44:53.984Z,0.50
2018-12-14T19:47:26.355Z,0.40
2018-12-14T19:49:58.345Z,0.40
2018-12-14T19:52:30.359Z,0.40
2018-12-14T19:55:02.789Z,0.40
2018-12-14T19:57:34.815Z,0.30
2018-12-14T20:00:10.375Z,0.30
2018-12-14T20:02:42.471Z,0.30
2018-12-14T20:05:14.395Z,0.30
2018-12-14T20:07:46.605Z,0.30
2018-12-14T20:10:18.799Z,0.30
2018-12-14T20:12:51.220Z,0.40
2018-12-14T20:15:23.451Z,0.40
2018-12-14T20:17:55.894Z,0.40
2018-12-14T20:20:28.195Z,0.50
2018-12-14T20:23:00.641Z,0.40
2018-12-14T20:25:32.728Z,0.50
2018-12-14T20:28:04.813Z,0.40
2018-12-14T20:30:36.909Z,0.40
2018-12-14T20:33:09.139Z,0.40
2018-12-14T20:35:41.132Z,0.40
2018-12-14T20:38:16.679Z,0.40
2018-12-14T20:40:48.965Z,0.40
2018-12-14T20:43:21.142Z,0.40
2018-12-14T20:45:57.357Z,0.50
2018-12-14T20:48:29.512Z,0.50
2018-12-14T20:51:05.253Z,0.50
2018-12-14T20:53:37.545Z,0.50
2018-12-14T20:56:13.061Z,0.40
2018-12-14T20:58:45.447Z,0.40
2018-12-14T21:01:17.754Z,0.40
2018-12-14T21:03:49.943Z,0.40
2018-12-14T21:21:39.298Z,0.30
2018-12-14T21:24:11.241Z,0.30
2018-12-14T21:26:43.185Z,0.20
2018-12-14T21:29:16.101Z,0.20
2018-12-14T21:31:48.103Z,0.20
2018-12-14T21:34:20.470Z,0.20
2018-12-14T21:36:52.788Z,0.10
2018-12-14T21:39:24.991Z,0.10
2018-12-14T21:41:57.213Z,0.10
2018-12-14T21:44:34.327Z,0.10
2018-12-14T21:47:06.613Z,0.10
2018-12-14T21:49:38.893Z,0.00
2018-12-14T21:52:11.375Z,0.00
2018-12-14T21:54:43.415Z,0.10
2018-12-14T21:57:15.496Z,0.10
2018-12-14T21:59:51.137Z,0.10
2018-12-14T22:02:23.408Z,0.10
2018-12-14T22:04:55.647Z,0.10
2018-12-14T22:07:31.777Z,0.20
2018-12-14T22:10:04.413Z,0.10
2018-12-14T22:12:36.205Z,0.10
2018-12-14T22:15:08.453Z,0.20
2018-12-14T22:17:40.499Z,0.20
2018-12-14T22:20:13.695Z,0.20
2018-12-14T22:22:49.922Z,0.20
2018-12-14T22:25:22.201Z,0.20
2018-12-14T22:27:54.342Z,0.30
2018-12-14T22:30:26.496Z,0.30
2018-12-14T22:32:58.739Z,0.20
2018-12-14T22:35:31.105Z,0.20
2018-12-14T22:38:03.274Z,0.20
2018-12-14T22:40:35.466Z,0.20
2018-12-14T22:43:07.892Z,0.20
2018-12-14T22:45:39.904Z,0.10
2018-12-14T22:48:11.964Z,0.10
2018-12-14T22:50:44.200Z,0.10
2018-12-14T22:53:16.352Z,0.10
2018-12-14T22:55:48.441Z,0.00
2018-12-14T22:58:20.357Z,0.00
2018-12-14T23:00:53.963Z,0.00
2018-12-14T23:03:29.496Z,0.00
2018-12-14T23:06:01.915Z,0.00
2018-12-14T23:08:33.900Z,0.10
2018-12-14T23:11:06.279Z,0.10
2018-12-14T23:13:38.219Z,0.10
2018-12-14T23:16:10.463Z,0.10
2018-12-14T23:18:42.617Z,0.10
2018-12-14T23:21:14.916Z,0.10
2018-12-14T23:28:56.237Z,0.00
2018-12-14T23:31:28.505Z,0.00
2018-12-14T23:34:00.881Z,0.00
2018-12-14T23:36:33.079Z,0.10
2018-12-14T23:39:06.313Z,0.10
2018-12-14T23:41:38.278Z,0.10
2018-12-14T23:44:10.466Z,0.10
2018-12-14T23:46:42.672Z,0.10
2018-12-14T23:49:14.765Z,0.10
2018-12-14T23:51:46.651Z,0.10
2018-12-14T23:54:18.933Z,0.10
2018-12-14T23:56:51.222Z,0.10
2018-12-14T23:59:23.701Z,0.00
